Time;durP1;ratioP1;P1;durP2;ratioP2;P2;SDS_P1;SDS_P2;PMS_P1;PMS_P2;Temp;Humidity;BMP_temperature;BMP_pressure;BME280_temperature;BME280_humidity;BME280_pressure;Samples;Min_cycle;Max_cycle;Signal;HPM_P1;HPM_P2
2021/05/06 00:06:00;;;;;;;5.10;1.80;;;24.20;99.90;;;;;;5027599;28;20239;-92
2021/05/06 00:33:34;;;;;;;4.03;1.43;;;23.70;99.90;;;;;;5037008;28;20201;-92
2021/05/06 00:36:05;;;;;;;4.30;1.77;;;23.60;99.90;;;;;;5039389;28;20213;-92
2021/05/06 00:38:42;;;;;;;8.67;1.40;;;23.70;99.90;;;;;;5038759;28;20236;-92
2021/05/06 00:41:28;;;;;;;5.13;1.70;;;23.70;99.90;;;;;;5022394;28;20209;-92
2021/05/06 00:44:22;;;;;;;3.07;1.23;;;23.80;99.90;;;;;;5037977;28;20499;-92
2021/05/06 00:56:05;;;;;;;8.30;1.63;;;23.70;99.90;;;;;;5027212;28;20212;-91
2021/05/06 01:01:51;;;;;;;2.90;1.80;;;23.50;99.90;;;;;;5039695;28;20639;-90
2021/05/06 01:04:32;;;;;;;7.83;2.10;;;23.60;99.90;;;;;;5050773;28;20225;-92
2021/05/06 01:07:15;;;;;;;4.33;1.50;;;23.60;99.90;;;;;;5059134;28;20220;-90
2021/05/06 01:09:54;;;;;;;4.40;1.60;;;23.50;99.90;;;;;;5058321;28;20243;-91
2021/05/06 01:12:25;;;;;;;3.33;1.60;;;23.30;99.90;;;;;;5042295;28;20212;-91
2021/05/06 01:14:56;;;;;;;2.30;1.30;;;23.40;99.90;;;;;;5039180;28;20201;-91
2021/05/06 01:17:26;;;;;;;8.67;1.70;;;23.30;99.90;;;;;;5026128;28;20220;-90
2021/05/06 01:19:58;;;;;;;4.57;1.40;;;23.20;99.90;;;;;;5039218;28;20228;-91
2021/05/06 01:22:31;;;;;;;4.17;1.53;;;23.10;99.90;;;;;;5038423;28;20274;-92
2021/05/06 01:25:01;;;;;;;5.03;1.70;;;23.10;99.90;;;;;;5038948;28;20212;-91
2021/05/06 01:27:38;;;;;;;6.30;1.70;;;23.10;99.90;;;;;;5038078;28;20217;-92
2021/05/06 01:30:18;;;;;;;5.93;1.50;;;23.10;99.90;;;;;;5038201;28;20610;-92
2021/05/06 01:32:51;;;;;;;2.83;1.67;;;22.90;99.90;;;;;;5038939;28;20207;-92
2021/05/06 01:35:29;;;;;;;2.93;1.67;;;22.90;99.90;;;;;;5038838;28;20652;-91
2021/05/06 01:38:13;;;;;;;6.67;1.60;;;22.90;99.90;;;;;;5037620;28;20236;-91
2021/05/06 01:43:37;;;;;;;3.03;1.67;;;22.60;99.90;;;;;;5033376;28;20201;-92
2021/05/06 01:57:59;;;;;;;6.00;2.00;;;22.70;99.90;;;;;;5059108;28;20759;-91
2021/05/06 02:00:32;;;;;;;5.63;1.97;;;22.50;99.90;;;;;;5031873;28;20357;-91
2021/05/06 02:03:02;;;;;;;5.70;2.00;;;22.30;99.90;;;;;;5042170;28;20216;-91
2021/05/06 02:05:34;;;;;;;3.20;1.47;;;22.10;99.90;;;;;;5038717;28;20383;-91
2021/05/06 02:08:05;;;;;;;5.53;1.50;;;21.90;99.90;;;;;;5037736;28;20228;-92
2021/05/06 02:10:37;;;;;;;4.97;2.27;;;21.70;99.90;;;;;;5040600;28;20201;-91
2021/05/06 02:13:08;;;;;;;4.83;2.00;;;21.60;99.90;;;;;;5019702;28;20213;-91
2021/05/06 02:15:42;;;;;;;7.13;1.87;;;21.40;99.90;;;;;;5036557;28;20216;-91
2021/05/06 02:18:15;;;;;;;5.63;1.87;;;21.40;99.90;;;;;;5036663;28;20229;-92
2021/05/06 02:20:47;;;;;;;4.20;1.50;;;21.30;99.90;;;;;;5036549;28;20213;-92
2021/05/06 02:23:18;;;;;;;3.47;1.67;;;21.20;99.90;;;;;;5037938;28;20216;-92
2021/05/06 02:25:50;;;;;;;7.33;2.10;;;21.10;99.90;;;;;;5021220;28;20676;-91
2021/05/06 02:28:21;;;;;;;8.17;2.17;;;21.00;99.90;;;;;;5035492;28;20731;-91
2021/05/06 02:30:51;;;;;;;4.33;1.87;;;20.90;99.90;;;;;;5036979;28;20247;-92
2021/05/06 02:33:21;;;;;;;5.07;2.00;;;20.90;99.90;;;;;;5036393;28;20271;-91
2021/05/06 02:35:51;;;;;;;5.10;1.87;;;20.80;99.90;;;;;;5052899;28;20197;-91
2021/05/06 02:38:22;;;;;;;5.50;2.23;;;20.70;99.90;;;;;;5055653;28;20290;-91
2021/05/06 02:40:54;;;;;;;5.27;1.70;;;20.60;99.90;;;;;;5055887;28;20208;-91
2021/05/06 02:43:25;;;;;;;4.73;2.10;;;20.50;99.90;;;;;;5055796;28;20246;-91
2021/05/06 02:45:56;;;;;;;4.50;1.77;;;20.40;99.90;;;;;;5054372;28;20295;-90
2021/05/06 02:48:26;;;;;;;5.60;1.90;;;20.40;99.90;;;;;;5056615;28;20291;-91
2021/05/06 02:50:59;;;;;;;8.33;1.70;;;20.30;99.90;;;;;;5055917;28;20688;-91
2021/05/06 02:53:34;;;;;;;5.13;2.10;;;20.20;99.90;;;;;;5056166;28;20212;-90
2021/05/06 02:56:12;;;;;;;3.57;1.90;;;20.00;99.90;;;;;;5055665;28;20653;-91
2021/05/06 02:58:56;;;;;;;3.63;2.10;;;20.00;99.90;;;;;;5055630;28;20641;-91
2021/05/06 03:04:14;;;;;;;5.80;1.97;;;19.80;99.90;;;;;;5039004;28;20213;-92
2021/05/06 03:06:49;;;;;;;4.43;1.73;;;19.70;99.90;;;;;;5047535;28;20278;-91
2021/05/06 03:12:22;;;;;;;2.93;1.63;;;19.40;99.90;;;;;;5022245;28;20590;-91
2021/05/06 03:15:08;;;;;;;4.63;1.63;;;19.30;99.90;;;;;;5017367;28;20236;-91
2021/05/06 03:23:14;;;;;;;7.87;1.87;;;18.80;99.90;;;;;;5035597;28;20269;-93
2021/05/06 03:25:45;;;;;;;8.03;2.07;;;18.70;99.90;;;;;;5017465;28;20236;-93
2021/05/06 03:28:24;;;;;;;6.40;1.50;;;18.60;99.90;;;;;;5047392;28;20239;-92
2021/05/06 03:31:24;;;;;;;8.23;1.53;;;18.60;99.90;;;;;;5051138;28;20219;-93
2021/05/06 03:42:25;;;;;;;5.40;1.70;;;18.50;99.90;;;;;;5035276;28;20278;-92
2021/05/06 04:18:51;;;;;;;5.70;1.93;;;18.20;99.90;;;;;;5014653;28;20269;-91
2021/05/06 04:21:32;;;;;;;7.73;1.60;;;18.50;99.00;;;;;;5014672;28;20209;-92
2021/05/06 04:26:58;;;;;;;5.23;1.70;;;18.50;99.60;;;;;;5013918;28;20218;-92
2021/05/06 04:29:56;;;;;;;8.10;1.40;;;18.40;99.40;;;;;;4998047;28;20205;-90
2021/05/06 04:38:04;;;;;;;6.73;1.90;;;18.30;98.90;;;;;;5031771;28;20255;-92
2021/05/06 04:40:49;;;;;;;9.67;2.03;;;18.20;99.50;;;;;;5017377;28;20282;-92
2021/05/06 04:46:32;;;;;;;5.27;1.87;;;18.20;99.40;;;;;;5027353;28;20204;-91
2021/05/06 04:54:41;;;;;;;5.37;1.50;;;18.10;99.90;;;;;;5037091;28;20209;-91
2021/05/06 04:57:38;;;;;;;6.30;1.30;;;18.00;99.70;;;;;;5038115;28;20232;-92
2021/05/06 05:05:45;;;;;;;3.73;1.37;;;18.00;97.90;;;;;;5034464;28;20296;-90
2021/05/06 05:08:18;;;;;;;6.13;1.57;;;18.20;97.50;;;;;;5033889;28;20261;-91
2021/05/06 05:11:04;;;;;;;3.07;1.47;;;18.10;97.70;;;;;;5036656;28;20209;-91
2021/05/06 05:24:59;;;;;;;4.07;1.57;;;18.30;97.80;;;;;;5036636;28;20278;-92
2021/05/06 05:27:29;;;;;;;6.37;1.83;;;18.10;98.70;;;;;;5037208;28;20216;-92
2021/05/06 05:30:00;;;;;;;8.33;1.47;;;18.00;98.20;;;;;;5037137;28;20267;-92
2021/05/06 05:32:30;;;;;;;4.77;1.60;;;17.90;97.60;;;;;;5037202;28;20287;-91
2021/05/06 05:35:02;;;;;;;2.43;1.47;;;17.80;97.90;;;;;;5037043;28;20204;-91
2021/05/06 05:37:36;;;;;;;8.23;1.90;;;17.70;99.90;;;;;;5037465;28;20217;-92
2021/05/06 05:43:00;;;;;;;3.73;1.80;;;17.60;98.90;;;;;;5035359;28;20213;-91
2021/05/06 05:57:06;;;;;;;6.67;2.00;;;17.10;99.90;;;;;;5054222;28;20279;-91
2021/05/06 05:59:37;;;;;;;4.53;1.80;;;17.00;99.90;;;;;;5040903;28;20240;-91
2021/05/06 06:02:08;;;;;;;5.27;1.80;;;16.90;99.90;;;;;;5038642;28;20228;-91
2021/05/06 06:04:38;;;;;;;7.37;1.87;;;16.80;99.90;;;;;;5039792;28;20299;-91
2021/05/06 06:07:09;;;;;;;9.60;2.00;;;16.70;99.90;;;;;;5038265;28;20529;-91
2021/05/06 06:09:39;;;;;;;3.80;1.60;;;16.70;99.90;;;;;;5022456;28;20205;-91
2021/05/06 06:12:12;;;;;;;5.33;1.57;;;16.70;99.90;;;;;;5036645;28;20205;-91
2021/05/06 06:14:50;;;;;;;5.43;1.60;;;16.60;99.90;;;;;;5035654;28;20224;-91
2021/05/06 06:17:20;;;;;;;5.23;1.47;;;16.60;99.90;;;;;;5036366;28;20247;-91
2021/05/06 06:19:54;;;;;;;6.67;1.70;;;16.50;99.90;;;;;;5036126;28;20237;-92
2021/05/06 06:22:25;;;;;;;5.10;1.63;;;16.50;99.90;;;;;;5034709;28;20205;-92
2021/05/06 06:24:55;;;;;;;4.93;1.20;;;16.70;99.90;;;;;;5035078;28;20209;-91
2021/05/06 06:27:27;;;;;;;4.33;1.40;;;16.60;99.90;;;;;;5035474;28;20250;-92
2021/05/06 06:29:58;;;;;;;6.83;1.77;;;16.60;99.90;;;;;;5036069;28;20201;-92
2021/05/06 06:32:29;;;;;;;7.33;1.97;;;16.60;99.90;;;;;;5036036;28;20664;-92
2021/05/06 06:34:59;;;;;;;5.37;1.60;;;16.60;99.90;;;;;;5034860;28;20205;-92
2021/05/06 06:37:30;;;;;;;6.43;1.73;;;16.60;99.90;;;;;;5037377;28;20209;-91
2021/05/06 06:40:01;;;;;;;4.77;1.80;;;16.50;99.90;;;;;;5055529;28;20279;-92
2021/05/06 06:42:34;;;;;;;7.93;1.80;;;16.50;99.90;;;;;;5055594;28;20200;-91
2021/05/06 06:45:06;;;;;;;6.13;1.70;;;16.50;99.90;;;;;;5054979;28;20672;-92
2021/05/06 06:47:37;;;;;;;7.40;2.47;;;16.40;99.90;;;;;;5055439;28;20208;-91
2021/05/06 06:50:08;;;;;;;6.20;2.83;;;16.40;99.90;;;;;;5055193;28;20215;-91
2021/05/06 06:52:39;;;;;;;4.90;2.33;;;16.30;99.90;;;;;;5055287;28;20239;-91
2021/05/06 06:55:10;;;;;;;3.07;2.40;;;16.20;99.90;;;;;;5054072;28;20262;-91
2021/05/06 06:57:44;;;;;;;5.60;2.60;;;16.00;99.90;;;;;;5055859;28;20259;-90
2021/05/06 07:00:15;;;;;;;4.50;2.30;;;15.90;99.90;;;;;;5054710;28;20232;-91
2021/05/06 07:02:45;;;;;;;5.33;2.43;;;15.80;99.90;;;;;;5024492;28;20267;-91
2021/05/06 07:05:16;;;;;;;4.93;1.90;;;15.70;99.90;;;;;;5034550;28;20197;-91
2021/05/06 07:07:46;;;;;;;6.93;2.10;;;15.60;99.90;;;;;;5035040;28;20259;-91
2021/05/06 07:10:17;;;;;;;6.87;2.07;;;15.50;99.90;;;;;;5034866;28;20208;-91
2021/05/06 07:12:50;;;;;;;5.70;2.30;;;15.40;99.90;;;;;;5017548;28;20220;-91
2021/05/06 07:16:01;;;;;;;8.83;2.80;;;15.40;99.90;;;;;;5034689;28;20243;-91
2021/05/06 07:19:01;;;;;;;4.77;2.60;;;15.50;99.90;;;;;;5034726;28;20312;-92
2021/05/06 07:21:59;;;;;;;7.20;2.70;;;15.30;99.90;;;;;;5017557;28;20228;-92
2021/05/06 07:24:49;;;;;;;5.50;2.87;;;15.10;99.90;;;;;;5034189;28;20251;-91
2021/05/06 07:27:52;;;;;;;4.43;2.77;;;14.90;99.90;;;;;;5017536;28;20223;-91
2021/05/06 07:33:36;;;;;;;7.27;2.90;;;14.70;99.90;;;;;;5036452;28;20258;-91
2021/05/06 07:36:34;;;;;;;6.77;3.00;;;14.60;99.90;;;;;;5034284;28;20247;-90
2021/05/06 07:39:19;;;;;;;3.93;2.57;;;14.50;99.90;;;;;;5021458;28;20268;-91
2021/05/06 07:42:05;;;;;;;7.00;2.90;;;14.50;99.90;;;;;;5000032;28;20220;-91
2021/05/06 07:44:53;;;;;;;7.50;3.13;;;14.40;99.90;;;;;;5016985;28;20212;-90
2021/05/06 07:47:35;;;;;;;3.93;2.70;;;14.30;99.90;;;;;;5052813;28;20264;-90
2021/05/06 07:50:09;;;;;;;4.70;3.07;;;14.20;99.90;;;;;;5038494;28;20246;-90
2021/05/06 07:52:43;;;;;;;6.70;2.80;;;14.30;99.90;;;;;;5054153;28;20207;-90
2021/05/06 07:55:16;;;;;;;5.90;3.00;;;14.30;99.90;;;;;;5053859;28;20204;-89
2021/05/06 07:57:47;;;;;;;5.13;3.03;;;14.20;99.90;;;;;;5054692;28;20684;-90
2021/05/06 08:00:20;;;;;;;4.47;2.53;;;14.20;99.90;;;;;;5054147;28;20251;-90
2021/05/06 08:02:52;;;;;;;3.00;2.50;;;14.10;99.90;;;;;;5052221;28;20720;-91
2021/05/06 08:05:24;;;;;;;5.10;2.50;;;14.10;99.90;;;;;;5053324;28;20204;-91
2021/05/06 08:07:55;;;;;;;5.73;2.50;;;14.20;99.90;;;;;;5036658;28;20615;-88
2021/05/06 08:10:26;;;;;;;4.03;2.60;;;14.20;99.90;;;;;;5054314;28;20258;-91
2021/05/06 08:12:58;;;;;;;4.50;2.60;;;14.10;99.90;;;;;;5054456;28;20707;-90
2021/05/06 08:15:28;;;;;;;4.97;2.77;;;14.10;99.90;;;;;;5053569;28;20649;-90
2021/05/06 08:18:01;;;;;;;4.27;2.50;;;14.10;99.90;;;;;;5055045;28;20264;-91
2021/05/06 08:20:31;;;;;;;4.10;2.60;;;14.10;99.90;;;;;;5054426;28;20231;-91
2021/05/06 08:23:03;;;;;;;3.97;2.53;;;14.10;99.90;;;;;;5063218;28;20208;-91
2021/05/06 08:25:34;;;;;;;4.60;2.77;;;14.00;99.90;;;;;;5070210;28;20196;-91
2021/05/06 08:28:06;;;;;;;8.67;2.70;;;14.00;99.90;;;;;;5070885;28;20224;-91
2021/05/06 08:30:37;;;;;;;4.97;2.80;;;14.00;99.90;;;;;;5058362;28;20211;-90
2021/05/06 08:33:11;;;;;;;7.63;2.97;;;14.00;99.90;;;;;;5054944;28;20634;-91
2021/05/06 08:35:41;;;;;;;6.27;2.50;;;14.00;99.90;;;;;;5053934;28;20226;-90
2021/05/06 08:38:12;;;;;;;4.20;2.60;;;14.00;99.90;;;;;;5054690;28;20254;-91
2021/05/06 08:40:43;;;;;;;5.33;2.33;;;14.00;99.90;;;;;;5057210;28;20216;-91
2021/05/06 08:43:13;;;;;;;6.20;2.37;;;13.90;99.90;;;;;;5055836;28;20637;-91
2021/05/06 08:45:47;;;;;;;6.43;2.53;;;13.90;99.90;;;;;;5040800;28;20204;-91
2021/05/06 08:48:19;;;;;;;5.07;2.40;;;13.90;99.90;;;;;;5058285;28;20208;-90
2021/05/06 08:50:49;;;;;;;4.40;2.40;;;13.90;99.90;;;;;;5058062;28;20208;-91
2021/05/06 08:53:21;;;;;;;4.67;2.63;;;13.80;99.90;;;;;;5059837;28;20273;-90
2021/05/06 08:55:53;;;;;;;5.23;2.27;;;13.90;99.90;;;;;;5057023;28;20209;-90
2021/05/06 08:58:23;;;;;;;6.50;2.47;;;13.90;99.90;;;;;;5057869;28;20216;-90
2021/05/06 09:00:52;;;;;;;4.13;2.13;;;13.80;99.90;;;;;;5060363;28;20273;-90
2021/05/06 09:03:24;;;;;;;5.43;1.90;;;13.80;99.90;;;;;;5038804;28;20677;-90
2021/05/06 09:06:17;;;;;;;5.37;2.00;;;13.80;99.90;;;;;;5037243;28;20205;-91
2021/05/06 09:08:51;;;;;;;4.73;2.43;;;13.90;99.90;;;;;;5039046;28;20235;-90
2021/05/06 09:11:30;;;;;;;6.40;2.33;;;14.00;99.90;;;;;;5041216;28;20231;-93
2021/05/06 09:14:05;;;;;;;5.73;2.10;;;14.10;99.90;;;;;;5046831;28;20208;-90
2021/05/06 09:16:36;;;;;;;7.73;2.27;;;14.00;99.90;;;;;;5040677;28;20630;-91
2021/05/06 09:19:13;;;;;;;7.50;2.43;;;14.20;99.90;;;;;;5037680;28;20264;-91
2021/05/06 09:21:45;;;;;;;4.17;2.07;;;14.30;99.90;;;;;;5037670;28;20255;-91
2021/05/06 09:24:20;;;;;;;5.20;2.03;;;14.30;99.90;;;;;;5036309;28;20250;-91
2021/05/06 09:26:53;;;;;;;8.43;2.40;;;14.40;99.90;;;;;;5037589;28;20620;-91
2021/05/06 09:29:36;;;;;;;7.20;2.77;;;14.40;99.90;;;;;;5037044;28;20240;-91
2021/05/06 09:32:19;;;;;;;6.57;2.40;;;14.40;99.90;;;;;;5037094;28;20232;-91
2021/05/06 09:34:55;;;;;;;4.23;2.13;;;14.20;99.90;;;;;;5035940;28;20259;-91
2021/05/06 09:37:27;;;;;;;5.13;1.80;;;14.20;99.90;;;;;;5036683;28;20270;-91
2021/05/06 09:39:59;;;;;;;7.33;2.50;;;14.10;99.90;;;;;;5036761;28;20268;-90
2021/05/06 09:42:42;;;;;;;2.90;1.90;;;14.10;99.90;;;;;;5037012;28;20247;-91
2021/05/06 09:45:22;;;;;;;4.43;2.10;;;14.00;99.90;;;;;;5035228;28;20224;-91
2021/05/06 09:48:12;;;;;;;4.47;2.40;;;13.90;99.90;;;;;;5037635;28;20212;-90
2021/05/06 09:50:47;;;;;;;6.70;2.90;;;13.70;99.90;;;;;;5035744;28;20212;-90
2021/05/06 09:53:20;;;;;;;8.03;3.40;;;13.60;99.90;;;;;;5036511;28;20692;-91
2021/05/06 09:55:55;;;;;;;6.57;3.30;;;13.50;99.90;;;;;;5035636;28;20201;-90
2021/05/06 09:58:31;;;;;;;4.80;3.00;;;13.40;99.90;;;;;;5038713;28;20231;-90
2021/05/06 10:01:12;;;;;;;6.87;3.30;;;13.30;99.90;;;;;;5036605;28;20258;-90
2021/05/06 10:03:44;;;;;;;7.67;3.47;;;13.30;99.90;;;;;;5047464;28;20208;-90
2021/05/06 10:06:18;;;;;;;7.40;3.30;;;13.20;99.90;;;;;;5056973;28;20235;-90
2021/05/06 10:08:50;;;;;;;6.83;3.30;;;13.20;99.90;;;;;;5056530;28;20269;-90
2021/05/06 10:11:22;;;;;;;7.50;3.13;;;13.30;99.90;;;;;;5055592;28;20239;-91
2021/05/06 10:13:54;;;;;;;5.37;3.30;;;13.30;99.90;;;;;;5055940;28;20215;-90
2021/05/06 10:16:25;;;;;;;6.37;3.57;;;13.40;99.90;;;;;;5039482;28;20224;-91
2021/05/06 10:18:57;;;;;;;5.67;3.50;;;13.40;99.90;;;;;;5036291;28;20259;-90
2021/05/06 10:21:29;;;;;;;5.40;3.47;;;13.30;99.90;;;;;;5036562;28;20240;-90
2021/05/06 10:24:00;;;;;;;8.50;2.50;;;13.20;99.90;;;;;;5035604;28;20576;-91
2021/05/06 10:26:31;;;;;;;5.53;2.50;;;13.30;99.90;;;;;;5035590;28;20212;-90
2021/05/06 10:29:03;;;;;;;8.73;2.90;;;13.40;99.90;;;;;;5036144;28;20212;-91
2021/05/06 10:31:34;;;;;;;4.17;2.70;;;13.40;99.90;;;;;;5018870;28;20398;-91
2021/05/06 10:34:05;;;;;;;5.87;2.73;;;13.40;99.90;;;;;;5035871;28;20662;-91
2021/05/06 10:36:38;;;;;;;3.70;2.50;;;13.40;99.90;;;;;;5036268;28;20241;-91
2021/05/06 10:39:13;;;;;;;5.30;2.60;;;13.50;99.90;;;;;;5036029;28;20296;-91
2021/05/06 10:41:44;;;;;;;8.63;2.73;;;13.50;99.90;;;;;;5036194;28;20657;-91
2021/05/06 10:44:15;;;;;;;6.23;3.00;;;13.50;99.90;;;;;;5035488;28;20258;-91
2021/05/06 10:47:04;;;;;;;4.20;3.00;;;13.50;99.90;;;;;;5051848;28;20235;-90
2021/05/06 10:50:09;;;;;;;6.17;3.20;;;13.50;99.90;;;;;;5051737;28;20312;-90
2021/05/06 10:52:45;;;;;;;5.03;3.07;;;13.40;99.90;;;;;;5043575;28;20342;-90
2021/05/06 10:55:18;;;;;;;5.40;3.13;;;13.40;99.90;;;;;;5036536;28;20304;-90
2021/05/06 10:57:51;;;;;;;7.07;3.07;;;13.40;99.90;;;;;;5037296;28;20248;-90
2021/05/06 11:00:28;;;;;;;5.33;2.90;;;13.30;99.90;;;;;;5036397;28;20236;-91
2021/05/06 11:03:01;;;;;;;5.90;3.07;;;13.30;99.90;;;;;;5036380;28;20208;-91
2021/05/06 11:05:32;;;;;;;8.20;3.00;;;13.30;99.90;;;;;;5017901;28;20201;-91
2021/05/06 11:08:29;;;;;;;10.23;3.00;;;13.30;99.90;;;;;;5034058;28;20291;-91
2021/05/06 11:11:17;;;;;;;5.60;2.47;;;13.30;99.90;;;;;;5030306;28;20676;-91
2021/05/06 11:14:10;;;;;;;3.87;2.17;;;13.40;99.90;;;;;;5017601;28;20239;-91
2021/05/06 11:16:42;;;;;;;6.20;3.10;;;13.40;99.90;;;;;;5035039;28;20259;-91
2021/05/06 11:19:14;;;;;;;5.40;2.90;;;13.30;99.90;;;;;;5018544;28;20410;-91
2021/05/06 11:21:48;;;;;;;5.40;2.87;;;13.40;99.90;;;;;;5017862;28;20284;-91
2021/05/06 11:24:27;;;;;;;4.60;2.33;;;13.30;99.90;;;;;;5033487;28;20282;-91
2021/05/06 11:27:13;;;;;;;5.37;2.10;;;13.30;99.90;;;;;;5036519;28;20213;-91
2021/05/06 11:29:45;;;;;;;6.00;2.17;;;13.30;99.90;;;;;;5035034;28;20286;-91
2021/05/06 11:32:26;;;;;;;5.80;2.27;;;13.50;99.90;;;;;;5017904;28;20291;-91
2021/05/06 11:34:57;;;;;;;5.33;1.77;;;13.70;99.90;;;;;;5034837;28;20209;-91
2021/05/06 11:37:29;;;;;;;6.60;2.00;;;13.70;99.90;;;;;;5038952;28;20205;-91
2021/05/06 11:40:06;;;;;;;4.63;1.90;;;13.80;99.90;;;;;;5034785;28;20248;-91
2021/05/06 11:42:39;;;;;;;7.73;1.63;;;13.80;99.90;;;;;;5035084;28;20262;-91
2021/05/06 11:45:24;;;;;;;4.80;1.80;;;13.80;99.90;;;;;;5000446;28;20240;-91
2021/05/06 11:47:57;;;;;;;5.33;1.73;;;13.90;99.90;;;;;;5034459;28;20287;-91
2021/05/06 11:50:31;;;;;;;5.33;2.00;;;13.90;99.90;;;;;;4668070;28;10001445;-91
2021/05/06 11:53:03;;;;;;;4.63;1.93;;;14.00;99.90;;;;;;5029435;28;20278;-90
2021/05/06 11:55:38;;;;;;;7.20;2.00;;;13.90;99.90;;;;;;5033249;28;20239;-91
2021/05/06 11:58:10;;;;;;;5.10;1.87;;;14.00;99.90;;;;;;5033484;28;20216;-91
2021/05/06 12:00:41;;;;;;;4.20;1.47;;;13.90;99.90;;;;;;5034377;28;20267;-91
2021/05/06 12:03:16;;;;;;;6.00;1.53;;;14.00;99.90;;;;;;5034090;28;20270;-90
2021/05/06 12:05:58;;;;;;;1.93;1.20;;;14.00;99.90;;;;;;5033332;28;20205;-90
2021/05/06 12:08:31;;;;;;;4.67;1.47;;;14.10;99.90;;;;;;5034706;28;20240;-91
2021/05/06 12:11:06;;;;;;;4.60;1.80;;;14.10;99.90;;;;;;5019085;28;20300;-91
2021/05/06 12:13:38;;;;;;;4.77;1.60;;;14.10;99.90;;;;;;5034417;28;20205;-89
2021/05/06 12:16:14;;;;;;;3.33;1.60;;;14.20;99.90;;;;;;5034594;28;20274;-90
2021/05/06 12:18:54;;;;;;;3.77;1.90;;;14.10;99.90;;;;;;5035500;28;20212;-91
2021/05/06 12:21:33;;;;;;;3.63;1.57;;;14.20;99.90;;;;;;5039443;28;20204;-90
2021/05/06 12:24:04;;;;;;;6.17;1.77;;;14.20;99.90;;;;;;5037305;28;20208;-90
2021/05/06 12:26:37;;;;;;;4.83;1.60;;;14.10;99.90;;;;;;5037875;28;20220;-91
2021/05/06 12:29:08;;;;;;;5.33;1.83;;;14.10;99.90;;;;;;5038341;28;20240;-91
2021/05/06 12:31:48;;;;;;;5.40;1.60;;;14.00;99.90;;;;;;5038324;28;20208;-90
2021/05/06 12:34:21;;;;;;;6.80;1.63;;;14.00;99.90;;;;;;5037468;28;20200;-90
2021/05/06 12:36:54;;;;;;;3.93;1.47;;;14.10;99.90;;;;;;5038177;28;20669;-90
2021/05/06 12:39:27;;;;;;;4.47;2.30;;;14.10;99.90;;;;;;5038100;28;20255;-90
2021/05/06 12:42:01;;;;;;;4.40;1.63;;;14.10;99.90;;;;;;5038542;28;20299;-90
2021/05/06 12:44:39;;;;;;;5.10;1.60;;;14.10;99.90;;;;;;5037672;28;20201;-90
2021/05/06 12:47:18;;;;;;;3.07;1.53;;;14.10;99.90;;;;;;5038076;28;20212;-90
2021/05/06 12:49:50;;;;;;;5.03;1.47;;;14.10;99.90;;;;;;5038236;28;20278;-90
2021/05/06 12:52:34;;;;;;;3.80;1.70;;;14.10;99.90;;;;;;5037926;28;20251;-90
2021/05/06 12:55:18;;;;;;;5.63;1.50;;;14.10;99.90;;;;;;5037380;28;20201;-90
2021/05/06 12:58:12;;;;;;;5.73;1.40;;;14.10;99.90;;;;;;5039716;28;20209;-90
2021/05/06 13:00:43;;;;;;;3.23;1.57;;;14.00;99.90;;;;;;5038562;28;20241;-90
2021/05/06 13:03:16;;;;;;;3.20;1.50;;;14.10;99.90;;;;;;5042739;28;20213;-90
2021/05/06 13:05:48;;;;;;;4.17;1.37;;;14.10;99.90;;;;;;5037277;28;20205;-90
2021/05/06 13:08:19;;;;;;;6.10;1.40;;;14.10;99.90;;;;;;5053733;28;20288;-89
2021/05/06 13:10:51;;;;;;;6.33;1.80;;;14.10;99.90;;;;;;5054597;28;20555;-90
2021/05/06 13:13:39;;;;;;;4.90;1.37;;;14.10;99.90;;;;;;5049983;28;20232;-90
2021/05/06 13:16:11;;;;;;;2.87;1.03;;;14.20;99.90;;;;;;5039114;28;20733;-89
2021/05/06 13:18:42;;;;;;;6.80;1.37;;;14.10;99.90;;;;;;5037765;28;20239;-90
2021/05/06 13:21:24;;;;;;;5.20;1.50;;;14.10;99.90;;;;;;5039519;28;20228;-90
2021/05/06 13:23:55;;;;;;;5.97;1.50;;;14.10;99.90;;;;;;5037794;28;20228;-91
2021/05/06 13:26:36;;;;;;;2.93;1.30;;;14.00;99.90;;;;;;5040415;28;20300;-91
2021/05/06 13:29:12;;;;;;;4.93;1.13;;;14.00;99.90;;;;;;5038134;28;20209;-90
2021/05/06 13:31:44;;;;;;;3.00;1.20;;;14.10;99.90;;;;;;5036437;28;20240;-91
2021/05/06 13:34:17;;;;;;;2.23;0.90;;;14.00;99.90;;;;;;5036856;28;20201;-91
2021/05/06 13:36:59;;;;;;;3.93;1.00;;;14.00;99.90;;;;;;5037272;28;20266;-91
2021/05/06 13:39:30;;;;;;;2.90;0.90;;;14.00;99.90;;;;;;5036645;28;20697;-91
2021/05/06 13:42:02;;;;;;;5.10;1.27;;;14.00;99.90;;;;;;5036521;28;20209;-91
2021/05/06 13:44:35;;;;;;;2.80;1.30;;;14.00;99.90;;;;;;5036169;28;20229;-91
2021/05/06 13:47:09;;;;;;;2.53;1.07;;;14.00;99.90;;;;;;5036659;28;20653;-90
2021/05/06 13:49:40;;;;;;;3.37;0.97;;;13.90;99.90;;;;;;5036842;28;20568;-90
2021/05/06 13:52:11;;;;;;;3.37;1.10;;;13.90;99.90;;;;;;5036086;28;20205;-90
2021/05/06 13:54:43;;;;;;;6.17;1.27;;;13.90;99.90;;;;;;5035762;28;20219;-90
2021/05/06 13:57:13;;;;;;;3.03;1.23;;;13.90;99.90;;;;;;5037049;28;20205;-89
2021/05/06 13:59:46;;;;;;;4.13;1.30;;;13.80;99.90;;;;;;5036218;28;20263;-90
2021/05/06 14:02:18;;;;;;;2.93;1.47;;;13.80;99.90;;;;;;5036511;28;20220;-90
2021/05/06 14:04:51;;;;;;;4.40;1.30;;;13.80;99.90;;;;;;5035893;28;20205;-90
2021/05/06 14:07:21;;;;;;;2.40;1.10;;;13.80;99.90;;;;;;5036527;28;20658;-90
2021/05/06 14:09:53;;;;;;;2.53;1.00;;;13.80;99.90;;;;;;5036354;28;20204;-90
2021/05/06 14:12:24;;;;;;;4.50;1.20;;;13.80;99.90;;;;;;5036508;28;20235;-90
2021/05/06 14:14:56;;;;;;;3.27;1.30;;;13.70;99.90;;;;;;5035554;28;20238;-90
2021/05/06 14:17:27;;;;;;;3.07;1.17;;;13.80;99.90;;;;;;5036010;28;20736;-90
2021/05/06 14:19:58;;;;;;;2.80;1.13;;;13.80;99.90;;;;;;5036225;28;20689;-90
2021/05/06 14:22:29;;;;;;;2.13;0.90;;;13.80;99.90;;;;;;5019398;28;20209;-91
2021/05/06 14:24:59;;;;;;;2.77;1.07;;;13.80;99.90;;;;;;5036225;28;20204;-90
2021/05/06 14:27:31;;;;;;;5.70;1.33;;;13.80;99.90;;;;;;5036015;28;20213;-91
2021/05/06 14:30:03;;;;;;;2.27;1.07;;;13.80;99.90;;;;;;5037061;28;20201;-90
2021/05/06 14:32:33;;;;;;;6.43;1.27;;;13.80;99.90;;;;;;5037232;28;20208;-90
2021/05/06 14:35:05;;;;;;;4.70;1.03;;;13.90;99.90;;;;;;5035958;28;20288;-91
2021/05/06 14:37:36;;;;;;;2.87;1.20;;;13.90;99.90;;;;;;5038844;28;20208;-91
2021/05/06 14:40:08;;;;;;;5.90;0.90;;;13.90;99.90;;;;;;5049882;28;20229;-90
2021/05/06 14:42:38;;;;;;;2.47;1.20;;;13.90;99.90;;;;;;5048004;28;20236;-90
2021/05/06 14:45:11;;;;;;;2.50;1.07;;;13.90;99.90;;;;;;5023882;28;20216;-90
2021/05/06 14:47:42;;;;;;;2.37;1.50;;;13.90;99.90;;;;;;5037163;28;20205;-90
2021/05/06 14:50:15;;;;;;;1.67;0.70;;;13.90;99.90;;;;;;5036829;28;20209;-90
2021/05/06 14:52:46;;;;;;;5.33;1.13;;;13.90;99.90;;;;;;5019423;28;20536;-90
2021/05/06 14:55:17;;;;;;;5.30;1.30;;;14.00;99.90;;;;;;5037215;28;20616;-90
2021/05/06 14:57:47;;;;;;;3.73;1.10;;;14.00;99.90;;;;;;5036447;28;20204;-89
2021/05/06 15:00:22;;;;;;;2.90;1.37;;;14.00;99.90;;;;;;5036470;28;20225;-90
2021/05/06 15:02:53;;;;;;;4.37;1.20;;;14.00;99.90;;;;;;5036701;28;20208;-90
2021/05/06 15:05:24;;;;;;;7.17;1.50;;;14.00;99.90;;;;;;5035844;28;20204;-89
2021/05/06 15:07:54;;;;;;;2.37;1.13;;;14.10;99.90;;;;;;5036770;28;20212;-90
2021/05/06 15:10:26;;;;;;;7.27;1.30;;;14.10;99.90;;;;;;5036532;28;20205;-89
2021/05/06 15:12:56;;;;;;;4.50;1.40;;;14.10;99.90;;;;;;5036107;28;20267;-90
2021/05/06 15:15:29;;;;;;;5.17;1.63;;;14.10;99.90;;;;;;5035969;28;20565;-91
2021/05/06 15:18:00;;;;;;;2.10;1.50;;;14.20;99.90;;;;;;5036511;28;20633;-90
2021/05/06 15:20:31;;;;;;;4.40;2.07;;;14.30;99.90;;;;;;5036372;28;20228;-90
2021/05/06 15:23:05;;;;;;;5.03;1.70;;;14.30;99.90;;;;;;5036645;28;20239;-91
2021/05/06 15:33:16;;;;;;;4.73;1.20;;;14.40;99.90;;;;;;4986225;28;20211;-89
2021/05/06 15:36:05;;;;;;;5.30;1.30;;;14.30;99.90;;;;;;5050522;28;20193;-90
2021/05/06 15:38:59;;;;;;;2.97;1.03;;;14.30;99.90;;;;;;5004800;28;20205;-91
2021/05/06 15:42:31;;;;;;;3.50;1.40;;;14.40;99.90;;;;;;5027960;28;20241;-90
2021/05/06 15:45:40;;;;;;;6.57;1.50;;;14.40;99.90;;;;;;4980397;28;20210;-89
2021/05/06 15:49:02;;;;;;;5.83;1.10;;;14.40;99.90;;;;;;5033236;28;20209;-88
2021/05/06 15:52:12;;;;;;;4.97;1.80;;;14.50;99.90;;;;;;5002580;28;20610;-89
2021/05/06 15:55:12;;;;;;;1.83;1.00;;;14.50;99.90;;;;;;5034239;28;20204;-89
2021/05/06 15:58:01;;;;;;;3.87;1.20;;;14.40;99.90;;;;;;5021179;28;20209;-89
2021/05/06 16:01:00;;;;;;;3.63;1.43;;;14.60;99.90;;;;;;5036054;28;20248;-89
2021/05/06 16:07:04;;;;;;;3.20;1.00;;;14.80;99.90;;;;;;5029182;28;20296;-89
2021/05/06 16:20:14;;;;;;;6.73;1.30;;;14.90;99.90;;;;;;4973646;28;20230;-90
2021/05/06 16:23:09;;;;;;;1.83;0.97;;;14.80;99.90;;;;;;4973940;28;20269;-90
2021/05/06 16:26:26;;;;;;;4.37;1.27;;;14.70;99.90;;;;;;4952829;28;20210;-89
2021/05/06 16:36:02;;;;;;;2.87;1.27;;;14.90;99.90;;;;;;4960382;28;20312;-90
2021/05/06 16:39:18;;;;;;;4.60;1.27;;;14.90;99.90;;;;;;4964298;28;20215;-91
2021/05/06 16:41:57;;;;;;;2.20;0.93;;;14.90;99.90;;;;;;4973941;28;20601;-90